Time;durP1;ratioP1;P1;durP2;ratioP2;P2;SDS_P1;SDS_P2;PMS_P1;PMS_P2;Temp;Humidity;BMP_temperature;BMP_pressure;BME280_temperature;BME280_humidity;BME280_pressure;Samples;Min_cycle;Max_cycle;Signal;HPM_P1;HPM_P2
2022/03/07 00:01:55;;;;;;;1.95;0.10;;;;;;;1.23;100.00;102148.34;5033943;28;20116;-54
2022/03/07 00:04:20;;;;;;;0.68;0.10;;;;;;;1.25;100.00;102149.94;5036788;28;20040;-55
2022/03/07 00:06:46;;;;;;;2.78;0.28;;;;;;;1.20;100.00;102148.53;5037418;28;20234;-56
2022/03/07 00:09:13;;;;;;;11.50;1.98;;;;;;;1.18;100.00;102151.22;5035534;28;20030;-55
2022/03/07 00:11:38;;;;;;;2.10;0.40;;;;;;;1.22;100.00;102149.31;5039800;28;20183;-59
2022/03/07 00:14:04;;;;;;;0.20;0.03;;;;;;;1.34;100.00;102152.94;5036922;28;20078;-60
2022/03/07 00:16:30;;;;;;;5.43;0.52;;;;;;;1.44;100.00;102149.69;5037567;28;20123;-60
2022/03/07 00:18:56;;;;;;;6.72;0.88;;;;;;;1.53;100.00;102149.16;5036313;28;20116;-60
2022/03/07 00:21:22;;;;;;;4.28;0.63;;;;;;;1.64;100.00;102137.22;5036320;28;20033;-58
2022/03/07 00:23:48;;;;;;;1.65;0.10;;;;;;;1.68;100.00;102144.78;5037200;28;20048;-59
2022/03/07 00:26:13;;;;;;;1.92;0.38;;;;;;;1.67;100.00;102142.25;5035956;28;20423;-58
2022/03/07 00:28:39;;;;;;;8.88;0.50;;;;;;;1.67;100.00;102147.50;5033948;28;20103;-61
2022/03/07 00:31:05;;;;;;;0.38;0.20;;;;;;;1.69;100.00;102145.63;5031033;28;20124;-59
2022/03/07 00:33:31;;;;;;;0.95;0.10;;;;;;;1.72;100.00;102142.81;5033293;28;20115;-57
2022/03/07 00:35:56;;;;;;;1.38;0.28;;;;;;;1.80;100.00;102137.97;5032606;28;20064;-57
2022/03/07 00:38:22;;;;;;;1.75;0.43;;;;;;;1.88;100.00;102140.13;5033719;28;20034;-59
2022/03/07 00:40:48;;;;;;;6.82;0.40;;;;;;;1.92;100.00;102139.00;5034071;28;20116;-57
2022/03/07 00:43:13;;;;;;;4.80;0.10;;;;;;;1.99;100.00;102136.84;5031419;28;20375;-59
2022/03/07 00:45:39;;;;;;;3.88;1.08;;;;;;;1.93;100.00;102138.88;5033983;28;20088;-55
2022/03/07 00:48:05;;;;;;;4.88;0.88;;;;;;;1.93;100.00;102130.22;5034441;28;20583;-56
2022/03/07 00:50:31;;;;;;;2.35;0.08;;;;;;;1.87;100.00;102134.03;5036163;28;20030;-58
2022/03/07 00:52:56;;;;;;;0.00;0.00;;;;;;;1.79;100.00;102130.22;5037317;28;20442;-59
2022/03/07 00:55:21;;;;;;;1.45;0.30;;;;;;;1.76;100.00;102131.25;5032630;28;20025;-59
2022/03/07 00:57:47;;;;;;;3.10;0.20;;;;;;;1.75;100.00;102137.41;5027627;28;20036;-59
2022/03/07 01:00:12;;;;;;;2.83;1.35;;;;;;;1.77;100.00;102138.16;5028860;28;20041;-56
2022/03/07 01:02:38;;;;;;;7.55;0.40;;;;;;;1.80;100.00;102132.72;5029060;28;20470;-57
2022/03/07 01:05:05;;;;;;;0.20;0.08;;;;;;;1.83;100.00;102132.53;5031382;28;20453;-57
2022/03/07 01:07:30;;;;;;;1.40;1.13;;;;;;;1.81;100.00;102126.59;5042983;28;20123;-59
2022/03/07 01:09:56;;;;;;;6.70;0.22;;;;;;;1.83;100.00;102127.31;5028959;28;20658;-58
2022/03/07 01:12:21;;;;;;;10.50;0.20;;;;;;;1.80;100.00;102131.91;5028448;28;20032;-58
2022/03/07 01:14:46;;;;;;;1.27;0.10;;;;;;;1.83;100.00;102131.72;5028541;28;20125;-59
2022/03/07 01:17:12;;;;;;;0.30;0.00;;;;;;;1.85;100.00;102133.28;5043339;28;20037;-56
2022/03/07 01:19:37;;;;;;;4.65;0.80;;;;;;;1.84;100.00;102138.63;5041470;28;20044;-57
2022/03/07 01:22:03;;;;;;;0.70;0.10;;;;;;;1.84;100.00;102139.47;5035210;28;20120;-58
2022/03/07 01:24:30;;;;;;;4.50;0.80;;;;;;;1.81;100.00;102138.81;5038103;28;20041;-59
2022/03/07 01:26:55;;;;;;;3.25;0.08;;;;;;;1.80;100.00;102135.34;5035675;28;20033;-57
2022/03/07 01:29:21;;;;;;;2.35;0.15;;;;;;;1.77;100.00;102143.38;5036012;28;20031;-58
2022/03/07 01:31:46;;;;;;;4.13;0.10;;;;;;;1.71;100.00;102138.53;5044134;28;20119;-56
2022/03/07 01:34:13;;;;;;;0.90;0.10;;;;;;;1.67;100.00;102135.25;5026420;28;20119;-59
2022/03/07 01:36:39;;;;;;;5.55;0.25;;;;;;;1.70;100.00;102132.47;5036484;28;20598;-59
2022/03/07 01:39:05;;;;;;;1.23;1.13;;;;;;;1.76;100.00;102126.03;5040131;28;20108;-58
2022/03/07 01:41:30;;;;;;;2.03;0.20;;;;;;;1.81;100.00;102129.19;5040207;28;20514;-55
2022/03/07 01:43:55;;;;;;;0.10;0.10;;;;;;;1.85;100.00;102122.84;5026806;28;20156;-61
2022/03/07 01:46:21;;;;;;;1.63;0.13;;;;;;;1.86;100.00;102121.91;5032764;28;20546;-59
2022/03/07 01:48:46;;;;;;;5.43;1.00;;;;;;;1.85;100.00;102116.75;5042449;28;20025;-53
2022/03/07 01:51:15;;;;;;;4.15;0.52;;;;;;;1.84;100.00;102108.09;5042561;28;20395;-55
2022/03/07 01:53:41;;;;;;;0.05;0.05;;;;;;;1.81;100.00;102102.19;5027788;28;20041;-55
2022/03/07 01:56:07;;;;;;;2.88;0.10;;;;;;;1.84;100.00;102102.84;5042812;28;20939;-58
2022/03/07 01:58:32;;;;;;;1.08;0.20;;;;;;;1.83;100.00;102106.38;5044502;28;20029;-57
2022/03/07 02:00:58;;;;;;;1.40;0.68;;;;;;;1.87;100.00;102092.19;5041697;28;20036;-57
2022/03/07 02:03:23;;;;;;;1.85;0.73;;;;;;;1.98;100.00;102088.06;5032768;28;20025;-52
2022/03/07 02:05:49;;;;;;;2.20;1.85;;;;;;;2.03;100.00;102080.78;5034601;28;20032;-59
2022/03/07 02:08:15;;;;;;;0.22;0.22;;;;;;;2.09;100.00;102076.00;5046837;28;20060;-55
2022/03/07 02:10:41;;;;;;;2.88;0.88;;;;;;;2.13;100.00;102066.19;5040827;28;20505;-58
2022/03/07 02:13:17;;;;;;;1.42;0.10;;;;;;;2.20;100.00;102064.84;5029693;28;20445;-56
2022/03/07 02:15:43;;;;;;;4.95;0.43;;;;;;;2.22;100.00;102059.50;5046993;28;20120;-57
2022/03/07 02:18:08;;;;;;;2.20;0.63;;;;;;;2.28;100.00;102056.53;5027518;28;20163;-58
2022/03/07 02:20:34;;;;;;;4.25;0.55;;;;;;;2.28;100.00;102067.00;5027102;28;20041;-59
2022/03/07 02:22:59;;;;;;;3.17;0.77;;;;;;;2.23;100.00;102059.41;5040201;28;20433;-58
2022/03/07 02:25:25;;;;;;;4.03;0.98;;;;;;;2.21;100.00;102052.59;5034774;28;20474;-56
2022/03/07 02:27:50;;;;;;;2.60;0.10;;;;;;;2.22;100.00;102044.66;5027484;28;20272;-54
2022/03/07 02:30:15;;;;;;;2.67;0.17;;;;;;;2.27;100.00;102041.72;5027523;28;20132;-58
2022/03/07 02:32:42;;;;;;;1.92;0.20;;;;;;;2.26;100.00;102030.44;5027062;28;20036;-60
2022/03/07 02:35:08;;;;;;;1.92;0.93;;;;;;;2.26;100.00;102029.59;5024504;28;20045;-60
2022/03/07 02:37:33;;;;;;;2.30;0.35;;;;;;;2.27;100.00;102019.03;5024946;28;20106;-54
2022/03/07 02:39:59;;;;;;;9.05;0.32;;;;;;;2.32;100.00;102018.72;5029549;28;20025;-58
2022/03/07 02:42:24;;;;;;;7.65;0.52;;;;;;;2.38;100.00;102013.94;5043831;28;20413;-55
2022/03/07 02:44:50;;;;;;;1.45;0.15;;;;;;;2.38;100.00;102003.47;5032392;28;20043;-58
2022/03/07 02:47:15;;;;;;;0.90;0.15;;;;;;;2.30;100.00;101999.69;5024788;28;20505;-55
2022/03/07 02:49:41;;;;;;;3.30;0.98;;;;;;;2.14;100.00;101995.44;5036026;28;20025;-58
2022/03/07 02:52:08;;;;;;;3.50;0.20;;;;;;;2.06;100.00;101996.84;5032517;28;20029;-61
2022/03/07 02:54:34;;;;;;;2.83;0.30;;;;;;;1.87;100.00;101992.78;5031646;28;20116;-61
2022/03/07 02:56:59;;;;;;;5.18;0.15;;;;;;;1.65;100.00;101984.63;5026788;28;20360;-59
2022/03/07 02:59:25;;;;;;;6.43;0.10;;;;;;;1.46;100.00;101991.00;5026423;28;20056;-56
2022/03/07 03:01:50;;;;;;;5.75;0.30;;;;;;;1.59;100.00;101985.84;5028891;28;20038;-59
2022/03/07 03:04:15;;;;;;;5.68;0.43;;;;;;;1.49;100.00;101988.19;5032478;28;20025;-57
2022/03/07 03:06:41;;;;;;;2.50;0.10;;;;;;;1.46;100.00;101996.22;5034451;28;20580;-60
2022/03/07 03:09:07;;;;;;;1.52;0.20;;;;;;;1.50;100.00;102000.34;5025318;28;20087;-57
2022/03/07 03:11:33;;;;;;;0.13;0.13;;;;;;;1.58;100.00;101988.56;5030174;28;20028;-58
2022/03/07 03:13:58;;;;;;;10.98;0.47;;;;;;;1.70;100.00;101990.41;5039318;28;20082;-60
2022/03/07 03:16:23;;;;;;;6.00;0.40;;;;;;;1.85;100.00;101989.44;5025779;28;20115;-57
2022/03/07 03:18:49;;;;;;;9.48;1.50;;;;;;;1.92;100.00;101975.03;5028951;28;20500;-60
2022/03/07 03:21:14;;;;;;;5.85;0.65;;;;;;;1.94;100.00;101982.78;5038297;28;20072;-56
2022/03/07 03:23:39;;;;;;;2.53;0.25;;;;;;;1.84;100.00;101972.06;5039923;28;20029;-56
2022/03/07 03:26:05;;;;;;;1.65;0.20;;;;;;;1.72;100.00;101971.06;5038991;28;20044;-57
2022/03/07 03:28:30;;;;;;;9.10;0.60;;;;;;;1.60;100.00;101969.25;5045814;28;20029;-59
2022/03/07 03:30:56;;;;;;;6.22;1.25;;;;;;;1.43;100.00;101961.59;5031071;28;20022;-59
2022/03/07 03:33:21;;;;;;;0.57;0.17;;;;;;;1.25;100.00;101966.19;5043818;28;20036;-57
2022/03/07 03:35:47;;;;;;;6.85;0.22;;;;;;;1.08;100.00;101970.69;5035151;28;20478;-53
2022/03/07 03:38:12;;;;;;;0.80;0.10;;;;;;;0.96;100.00;101965.34;5043391;28;20577;-59
2022/03/07 03:40:38;;;;;;;3.10;0.20;;;;;;;0.89;100.00;101964.88;5046452;28;20025;-59
2022/03/07 03:43:04;;;;;;;3.83;0.38;;;;;;;0.92;100.00;101964.69;5030543;28;20048;-59
2022/03/07 03:45:30;;;;;;;2.92;0.10;;;;;;;0.95;100.00;101964.50;5033915;28;20024;-59
2022/03/07 03:47:56;;;;;;;1.85;0.10;;;;;;;0.83;100.00;101960.03;5037810;28;20422;-55
2022/03/07 03:50:21;;;;;;;2.22;0.32;;;;;;;0.72;100.00;101972.84;5031825;28;20510;-57
2022/03/07 03:52:47;;;;;;;2.92;0.68;;;;;;;0.64;100.00;101966.31;5026779;28;20161;-57
2022/03/07 03:55:13;;;;;;;0.00;0.00;;;;;;;0.71;100.00;101969.41;5040605;28;20048;-59
2022/03/07 03:57:40;;;;;;;1.23;0.30;;;;;;;0.73;100.00;101961.50;5028163;28;20034;-59
2022/03/07 04:00:08;;;;;;;4.57;0.68;;;;;;;0.75;100.00;101964.84;5038216;28;20057;-56
2022/03/07 04:02:34;;;;;;;2.20;0.20;;;;;;;0.82;100.00;101966.16;5032626;28;20033;-58
2022/03/07 04:04:59;;;;;;;1.27;0.17;;;;;;;0.96;100.00;101962.75;5034465;28;20044;-56
2022/03/07 04:07:25;;;;;;;2.65;0.22;;;;;;;1.07;100.00;101963.75;5033788;28;20040;-55
2022/03/07 04:09:50;;;;;;;14.82;0.38;;;;;;;1.18;100.00;101936.13;5025461;28;20067;-57
2022/03/07 04:12:15;;;;;;;2.15;0.08;;;;;;;1.30;100.00;101945.84;5035237;28;20037;-58
2022/03/07 04:14:41;;;;;;;2.40;0.63;;;;;;;1.25;100.00;101948.75;5025957;28;20614;-58
2022/03/07 04:17:06;;;;;;;3.63;0.40;;;;;;;1.27;100.00;101946.03;5026192;28;20398;-59
2022/03/07 04:19:32;;;;;;;4.90;0.25;;;;;;;1.26;100.00;101944.34;5027899;28;20065;-58
2022/03/07 04:21:57;;;;;;;6.80;0.43;;;;;;;1.15;100.00;101949.41;5035042;28;20041;-59
2022/03/07 04:24:22;;;;;;;2.35;0.30;;;;;;;1.16;100.00;101944.09;5044860;28;20170;-57
2022/03/07 04:26:48;;;;;;;7.28;0.20;;;;;;;1.06;100.00;101950.81;5043596;28;20542;-58
2022/03/07 04:29:14;;;;;;;5.20;0.88;;;;;;;0.99;100.00;101958.16;5030994;28;20046;-55
2022/03/07 04:31:43;;;;;;;5.78;0.98;;;;;;;0.96;100.00;101962.75;5029492;28;20033;-57
2022/03/07 04:34:09;;;;;;;4.38;0.50;;;;;;;0.80;100.00;101957.56;5032024;28;20056;-56
2022/03/07 04:36:36;;;;;;;2.33;0.20;;;;;;;0.70;100.00;101952.09;5040754;28;20038;-58
2022/03/07 04:39:06;;;;;;;0.50;0.20;;;;;;;0.75;100.00;101957.88;5041167;28;20526;-55
2022/03/07 04:41:32;;;;;;;1.15;1.05;;;;;;;0.74;100.00;101956.19;5043025;28;20032;-57
2022/03/07 04:43:58;;;;;;;6.40;0.43;;;;;;;0.79;100.00;101954.13;5048999;28;20028;-56
2022/03/07 04:46:23;;;;;;;2.80;0.57;;;;;;;0.87;100.00;101962.34;5048450;28;20044;-58
2022/03/07 04:48:49;;;;;;;2.92;0.05;;;;;;;0.94;100.00;101948.94;5044342;28;20026;-55
2022/03/07 04:51:14;;;;;;;5.65;0.30;;;;;;;1.04;100.00;101950.91;5040435;28;20029;-54
2022/03/07 04:53:43;;;;;;;2.92;0.75;;;;;;;1.11;100.00;101948.75;5054913;28;20042;-57
2022/03/07 04:56:09;;;;;;;4.15;0.25;;;;;;;1.12;100.00;101946.97;5053227;28;20124;-57
2022/03/07 04:58:35;;;;;;;7.95;1.88;;;;;;;1.05;100.00;101943.88;5044154;28;20043;-59
2022/03/07 05:01:00;;;;;;;0.90;0.30;;;;;;;1.00;100.00;101952.00;5032025;28;20038;-58
2022/03/07 05:03:26;;;;;;;1.83;0.10;;;;;;;0.95;100.00;101943.59;5036122;28;20474;-56
2022/03/07 05:05:51;;;;;;;4.25;1.38;;;;;;;0.89;100.00;101946.59;5042019;28;20064;-59
2022/03/07 05:08:17;;;;;;;0.63;0.08;;;;;;;0.83;100.00;101953.03;5049540;28;20037;-59
2022/03/07 05:10:42;;;;;;;4.32;0.20;;;;;;;0.79;100.00;101950.69;5047280;28;20038;-60
2022/03/07 05:13:08;;;;;;;3.20;0.00;;;;;;;0.76;100.00;101943.03;5049180;28;20032;-59
2022/03/07 05:15:33;;;;;;;2.05;0.10;;;;;;;0.81;100.00;101948.81;5057000;28;20413;-59
2022/03/07 05:17:59;;;;;;;3.08;0.65;;;;;;;0.81;100.00;101946.22;5037259;28;20069;-60
2022/03/07 05:20:25;;;;;;;4.00;0.40;;;;;;;0.72;100.00;101942.38;5031632;28;20090;-59
2022/03/07 05:22:51;;;;;;;8.98;0.30;;;;;;;0.59;100.00;101933.59;5045189;28;20489;-60
2022/03/07 05:25:18;;;;;;;0.50;0.20;;;;;;;0.46;100.00;101941.28;5056619;28;20119;-57
2022/03/07 05:27:44;;;;;;;4.95;2.00;;;;;;;0.37;100.00;101944.47;5037492;28;20074;-60
2022/03/07 05:30:15;;;;;;;4.07;0.15;;;;;;;0.32;100.00;101946.50;5032024;28;20128;-55
2022/03/07 05:32:44;;;;;;;0.85;0.08;;;;;;;0.27;100.00;101943.31;5043436;28;20495;-59
2022/03/07 05:35:10;;;;;;;3.80;0.10;;;;;;;0.36;100.00;101947.97;5043965;28;20065;-58
2022/03/07 05:37:36;;;;;;;2.03;0.20;;;;;;;0.39;100.00;101951.28;5028459;28;20068;-57
2022/03/07 05:40:04;;;;;;;3.83;0.38;;;;;;;0.41;100.00;101945.94;5028988;28;20037;-59
2022/03/07 05:42:29;;;;;;;4.47;0.20;;;;;;;0.45;100.00;101949.22;5029064;28;20163;-59
2022/03/07 05:44:54;;;;;;;6.18;0.30;;;;;;;0.52;100.00;101947.94;5038381;28;20501;-59
2022/03/07 05:47:20;;;;;;;1.35;0.10;;;;;;;0.48;100.00;101949.88;5035731;28;20044;-59
2022/03/07 05:49:45;;;;;;;1.25;0.93;;;;;;;0.39;100.00;101951.28;5039196;28;20091;-59
2022/03/07 05:52:11;;;;;;;1.08;0.15;;;;;;;0.35;100.00;101951.53;5026716;28;20029;-60
2022/03/07 05:54:36;;;;;;;8.45;0.20;;;;;;;0.32;100.00;101949.09;5037306;28;20294;-58
2022/03/07 05:57:01;;;;;;;1.02;0.15;;;;;;;0.41;100.00;101951.16;5039003;28;20389;-55
2022/03/07 05:59:27;;;;;;;5.18;0.98;;;;;;;0.54;100.00;101946.06;5042599;28;20025;-59
2022/03/07 06:01:52;;;;;;;3.08;0.30;;;;;;;0.59;100.00;101947.47;5028059;28;20057;-56
2022/03/07 06:04:18;;;;;;;1.35;0.13;;;;;;;0.63;100.00;101956.81;5037653;28;20041;-59
2022/03/07 06:06:43;;;;;;;1.90;0.20;;;;;;;0.61;100.00;101947.41;5035283;28;20033;-59
2022/03/07 06:09:09;;;;;;;8.95;0.45;;;;;;;0.57;100.00;101946.75;5030347;28;20049;-56
2022/03/07 06:11:34;;;;;;;1.17;0.22;;;;;;;0.56;100.00;101932.00;5035612;28;20436;-57
2022/03/07 06:13:59;;;;;;;10.68;0.30;;;;;;;0.58;100.00;101943.19;5033101;28;20482;-56
2022/03/07 06:16:25;;;;;;;0.22;0.22;;;;;;;0.60;100.00;101933.50;5040719;28;20068;-58
2022/03/07 06:18:50;;;;;;;1.55;0.35;;;;;;;0.65;100.00;101930.63;5027204;28;20447;-61
2022/03/07 06:21:16;;;;;;;0.90;0.10;;;;;;;0.68;100.00;101932.22;5033131;28;20307;-56
2022/03/07 06:23:42;;;;;;;1.30;0.03;;;;;;;0.74;100.00;101924.84;5034882;28;20036;-58
2022/03/07 06:26:08;;;;;;;6.70;1.95;;;;;;;0.76;100.00;101928.22;5030396;28;20034;-56
2022/03/07 06:28:33;;;;;;;1.50;0.10;;;;;;;0.83;100.00;101928.69;5034842;28;20107;-54
2022/03/07 06:30:59;;;;;;;1.38;0.40;;;;;;;0.92;100.00;101925.50;5035974;28;20546;-54
2022/03/07 06:33:25;;;;;;;6.72;0.43;;;;;;;0.95;100.00;101919.25;5029531;28;20045;-59
2022/03/07 06:35:50;;;;;;;1.23;0.13;;;;;;;0.91;100.00;101928.22;5031823;28;20033;-54
2022/03/07 06:38:16;;;;;;;4.97;2.40;;;;;;;0.85;100.00;101924.19;5034900;28;20041;-57
2022/03/07 06:40:42;;;;;;;3.28;0.40;;;;;;;0.88;100.00;101929.25;5035500;28;20541;-61
2022/03/07 06:43:07;;;;;;;0.63;0.20;;;;;;;0.89;100.00;101928.31;5034063;28;20096;-57
2022/03/07 06:45:33;;;;;;;5.63;1.60;;;;;;;0.95;100.00;101927.09;5034661;28;20159;-54
2022/03/07 06:47:59;;;;;;;5.20;0.60;;;;;;;0.99;100.00;101933.81;5035549;28;20044;-58
2022/03/07 06:50:25;;;;;;;5.25;0.95;;;;;;;1.03;100.00;101933.56;5041108;28;20033;-59
2022/03/07 06:52:50;;;;;;;6.68;1.15;;;;;;;1.08;100.00;101928.88;5031882;28;20040;-60
2022/03/07 06:55:15;;;;;;;2.50;0.50;;;;;;;1.12;100.00;101928.69;5032350;28;20048;-59
2022/03/07 06:57:42;;;;;;;13.15;0.73;;;;;;;1.20;100.00;101922.03;5034253;28;20025;-56
2022/03/07 07:00:10;;;;;;;2.67;0.47;;;;;;;1.33;100.00;101924.75;5031151;28;20025;-54
2022/03/07 07:02:35;;;;;;;5.45;0.30;;;;;;;1.41;100.00;101917.25;5034892;28;20033;-57
2022/03/07 07:05:02;;;;;;;4.53;0.10;;;;;;;1.57;100.00;101914.50;5035570;28;20041;-54
2022/03/07 07:07:29;;;;;;;0.55;0.17;;;;;;;1.68;100.00;101904.22;5037600;28;20038;-55
2022/03/07 07:09:54;;;;;;;0.00;0.00;;;;;;;1.76;100.00;101906.34;5026768;28;20029;-55
2022/03/07 07:12:19;;;;;;;1.52;0.47;;;;;;;1.74;100.00;101905.59;5031366;28;20040;-58
2022/03/07 07:14:45;;;;;;;3.90;0.13;;;;;;;1.63;100.00;101895.84;5032456;28;20711;-60
2022/03/07 07:17:10;;;;;;;8.95;1.55;;;;;;;1.58;100.00;101902.31;5027927;28;20418;-57
2022/03/07 07:19:35;;;;;;;1.25;0.43;;;;;;;1.56;100.00;101904.16;5032638;28;20025;-59
2022/03/07 07:22:01;;;;;;;1.98;0.45;;;;;;;1.56;100.00;101898.94;5040020;28;20033;-56
2022/03/07 07:24:26;;;;;;;0.82;0.00;;;;;;;1.70;100.00;101907.59;5032293;28;20021;-56
2022/03/07 07:26:52;;;;;;;2.15;0.47;;;;;;;1.83;100.00;101906.78;5039459;28;20087;-58
2022/03/07 07:29:17;;;;;;;3.00;0.30;;;;;;;1.84;100.00;101898.00;5035479;28;20139;-58
2022/03/07 07:31:42;;;;;;;8.18;0.22;;;;;;;1.79;100.00;101906.16;5036140;28;20116;-58
2022/03/07 07:34:08;;;;;;;3.70;1.20;;;;;;;1.73;100.00;101896.09;5031347;28;20041;-57
2022/03/07 07:36:33;;;;;;;1.73;0.08;;;;;;;1.73;100.00;101898.72;5030824;28;20102;-57
2022/03/07 07:38:58;;;;;;;3.13;0.22;;;;;;;1.64;100.00;101896.66;5034983;28;20313;-60
2022/03/07 07:41:24;;;;;;;4.30;0.32;;;;;;;1.54;100.00;101904.25;5027452;28;20039;-58
2022/03/07 07:43:49;;;;;;;3.88;0.55;;;;;;;1.57;100.00;101908.44;5028844;28;20276;-54
2022/03/07 07:46:15;;;;;;;3.08;0.20;;;;;;;1.68;100.00;101906.00;5030352;28;20503;-61
2022/03/07 07:48:41;;;;;;;3.95;0.70;;;;;;;1.82;100.00;101907.72;5036058;28;20075;-58
2022/03/07 07:51:06;;;;;;;3.30;1.13;;;;;;;1.88;100.00;101900.28;5035833;28;20033;-60
2022/03/07 07:53:32;;;;;;;4.13;0.45;;;;;;;1.88;100.00;101894.22;5034886;28;20047;-55
2022/03/07 07:55:57;;;;;;;6.03;0.93;;;;;;;1.94;100.00;101894.69;5033423;28;20033;-59
2022/03/07 07:58:22;;;;;;;2.92;0.80;;;;;;;2.01;100.00;101899.50;5035607;28;20071;-59
2022/03/07 08:00:48;;;;;;;2.03;0.60;;;;;;;2.11;100.00;101897.97;5028667;28;20029;-57
2022/03/07 08:03:13;;;;;;;4.90;0.55;;;;;;;2.22;100.00;101897.25;5031757;28;20029;-59
2022/03/07 08:05:38;;;;;;;3.53;0.50;;;;;;;2.30;100.00;101898.44;5033146;28;20029;-58
2022/03/07 08:08:04;;;;;;;2.15;0.00;;;;;;;2.38;100.00;101896.13;5030881;28;20021;-56
2022/03/07 08:10:29;;;;;;;0.30;0.13;;;;;;;2.49;100.00;101889.34;5032903;28;20029;-56
2022/03/07 08:12:55;;;;;;;12.23;1.00;;;;;;;2.66;100.00;101889.03;5031582;28;20064;-59
2022/03/07 08:15:20;;;;;;;8.10;0.38;;;;;;;2.84;100.00;101884.31;5032466;28;20477;-55
2022/03/07 08:17:50;;;;;;;4.50;1.50;;;;;;;2.98;100.00;101886.78;5036743;28;20032;-58
2022/03/07 08:20:20;;;;;;;3.85;0.10;;;;;;;3.07;100.00;101890.53;5036784;28;20038;-55
2022/03/07 08:22:46;;;;;;;4.07;0.15;;;;;;;3.03;100.00;101889.09;5037533;28;20095;-55
2022/03/07 08:25:12;;;;;;;3.53;0.10;;;;;;;3.10;100.00;101892.09;5036659;28;20025;-57
2022/03/07 08:27:38;;;;;;;6.15;2.00;;;;;;;3.11;100.00;101892.00;5042684;28;20028;-60
2022/03/07 08:30:09;;;;;;;1.50;0.30;;;;;;;3.18;100.00;101895.88;5035947;28;20034;-57
2022/03/07 08:32:35;;;;;;;4.43;0.80;;;;;;;3.26;100.00;101892.72;5035327;28;20291;-55
2022/03/07 08:35:01;;;;;;;1.90;0.00;;;;;;;3.12;100.00;101898.09;5032382;28;20345;-58
2022/03/07 08:37:27;;;;;;;3.90;0.30;;;;;;;3.09;100.00;101895.69;5026912;28;20041;-56
2022/03/07 08:39:52;;;;;;;5.97;0.90;;;;;;;3.24;100.00;101902.47;5040490;28;20032;-57
2022/03/07 08:42:19;;;;;;;6.43;0.10;;;;;;;3.42;100.00;101895.09;5036989;28;20041;-62
2022/03/07 08:44:45;;;;;;;6.22;0.50;;;;;;;3.58;100.00;101886.94;5030332;28;20079;-58
2022/03/07 08:47:11;;;;;;;7.03;0.77;;;;;;;3.72;100.00;101895.50;5042781;28;20088;-58
2022/03/07 08:49:36;;;;;;;4.97;0.55;;;;;;;3.85;100.00;101900.69;5048740;28;20028;-54
2022/03/07 08:52:03;;;;;;;5.07;1.05;;;;;;;3.98;100.00;101903.25;5040521;28;20036;-55
2022/03/07 08:54:28;;;;;;;5.88;0.30;;;;;;;4.06;100.00;101889.56;5025329;28;20063;-58
2022/03/07 08:56:53;;;;;;;1.77;0.50;;;;;;;4.13;100.00;101885.50;5034582;28;20483;-58
2022/03/07 08:59:19;;;;;;;1.08;0.28;;;;;;;4.21;100.00;101879.66;5045004;28;20488;-62
2022/03/07 09:01:44;;;;;;;5.35;0.30;;;;;;;4.30;100.00;101865.88;5038586;28;20114;-60
2022/03/07 09:04:09;;;;;;;0.43;0.38;;;;;;;4.41;100.00;101875.53;5031014;28;20041;-57
2022/03/07 09:06:35;;;;;;;7.97;1.30;;;;;;;4.49;100.00;101870.53;5037410;28;20044;-56
2022/03/07 09:09:00;;;;;;;1.33;0.20;;;;;;;4.59;100.00;101867.13;5042571;28;20482;-56
2022/03/07 09:11:25;;;;;;;1.27;0.57;;;;;;;4.70;100.00;101873.31;5039766;28;20037;-60
2022/03/07 09:13:51;;;;;;;3.25;0.25;;;;;;;4.72;100.00;101872.22;5037320;28;20020;-60
2022/03/07 09:16:17;;;;;;;7.38;0.65;;;;;;;4.71;100.00;101862.69;5040603;28;20036;-58
2022/03/07 09:18:42;;;;;;;5.03;1.27;;;;;;;4.70;100.00;101857.53;5038526;28;20025;-58
2022/03/07 09:21:07;;;;;;;6.43;0.68;;;;;;;4.74;100.00;101862.44;5037241;28;20528;-58
2022/03/07 09:23:37;;;;;;;1.65;0.52;;;;;;;4.75;100.00;101848.38;5036451;28;20061;-60
2022/03/07 09:26:05;;;;;;;3.63;0.38;;;;;;;4.83;100.00;101839.88;5038186;28;20032;-57
2022/03/07 09:28:31;;;;;;;2.35;0.98;;;;;;;4.88;100.00;101845.63;5042768;28;20029;-58
2022/03/07 09:30:56;;;;;;;5.18;0.93;;;;;;;4.96;100.00;101852.91;5034480;28;20540;-56
2022/03/07 09:33:24;;;;;;;1.25;0.30;;;;;;;5.03;100.00;101849.69;5038606;28;20062;-55
2022/03/07 09:35:49;;;;;;;1.65;0.52;;;;;;;5.11;100.00;101850.84;5038065;28;20246;-55
2022/03/07 09:38:14;;;;;;;1.55;0.10;;;;;;;5.11;100.00;101842.94;5039515;28;20662;-59
2022/03/07 09:40:40;;;;;;;3.35;0.50;;;;;;;5.20;100.00;101845.69;5037522;28;20723;-56
2022/03/07 09:43:07;;;;;;;3.10;0.50;;;;;;;5.35;100.00;101838.38;5031954;28;20030;-60
2022/03/07 09:45:32;;;;;;;2.45;0.73;;;;;;;5.49;100.00;101833.78;5034031;28;20024;-61
2022/03/07 09:47:58;;;;;;;3.20;1.15;;;;;;;5.62;100.00;101831.81;5040658;28;20028;-58
2022/03/07 09:50:23;;;;;;;3.10;0.20;;;;;;;5.72;100.00;101829.28;5038596;28;20079;-57
2022/03/07 09:52:49;;;;;;;2.00;0.57;;;;;;;5.72;100.00;101819.56;5046550;28;20029;-62
2022/03/07 09:55:16;;;;;;;3.72;0.35;;;;;;;5.69;100.00;101820.66;5032185;28;20041;-57
2022/03/07 09:57:43;;;;;;;1.92;0.15;;;;;;;5.66;100.00;101820.09;5042315;28;21237;-57
2022/03/07 10:00:09;;;;;;;4.90;0.80;;;;;;;5.59;100.00;101813.66;5045838;28;20477;-58
2022/03/07 10:02:34;;;;;;;4.68;1.55;;;;;;;5.52;100.00;101820.38;5029195;28;20044;-59
2022/03/07 10:05:04;;;;;;;3.60;1.05;;;;;;;5.52;100.00;101807.22;5032355;28;20033;-62
2022/03/07 10:07:29;;;;;;;3.30;0.50;;;;;;;5.56;100.00;101803.38;5036548;28;20071;-60
2022/03/07 10:10:06;;;;;;;2.45;0.82;;;;;;;5.65;100.00;101821.91;5043090;28;20108;-60
2022/03/07 10:12:32;;;;;;;3.03;0.57;;;;;;;5.57;100.00;101805.03;5028183;28;20148;-56
2022/03/07 10:14:57;;;;;;;4.68;0.25;;;;;;;5.58;100.00;101790.94;5034746;28;20589;-61
2022/03/07 10:17:26;;;;;;;5.10;1.30;;;;;;;5.63;100.00;101786.13;5046318;28;20075;-57
2022/03/07 10:19:54;;;;;;;1.27;0.30;;;;;;;5.59;100.00;101798.69;5041676;28;20031;-58
2022/03/07 10:22:22;;;;;;;5.57;0.50;;;;;;;5.56;100.00;101783.16;5040639;28;20037;-59
2022/03/07 10:25:01;;;;;;;2.72;0.45;;;;;;;5.46;100.00;101783.09;5047174;28;20043;-59
2022/03/07 10:27:29;;;;;;;3.85;0.17;;;;;;;5.55;100.00;101776.25;5038925;28;20060;-57
2022/03/07 10:29:55;;;;;;;13.25;0.73;;;;;;;5.66;100.00;101772.72;5031146;28;20091;-58
2022/03/07 10:32:21;;;;;;;5.90;0.47;;;;;;;5.74;100.00;101767.66;5040830;28;20466;-60
2022/03/07 10:34:47;;;;;;;5.72;0.30;;;;;;;5.92;100.00;101770.53;5045029;28;20036;-58
2022/03/07 10:37:12;;;;;;;1.67;0.63;;;;;;;6.04;100.00;101779.22;5038896;28;20037;-60
2022/03/07 10:39:46;;;;;;;2.40;1.20;;;;;;;6.06;100.00;101778.13;5036369;28;20104;-57
2022/03/07 10:42:19;;;;;;;5.40;0.43;;;;;;;6.11;100.00;101769.84;5043022;28;20427;-61
2022/03/07 10:44:46;;;;;;;2.33;0.40;;;;;;;6.23;100.00;101766.19;5036954;28;20025;-56
2022/03/07 10:47:13;;;;;;;1.40;0.13;;;;;;;6.51;100.00;101758.53;5039555;28;20052;-61
2022/03/07 10:49:56;;;;;;;4.13;0.22;;;;;;;6.52;100.00;101763.66;5049258;28;20128;-59
2022/03/07 10:52:22;;;;;;;1.20;0.32;;;;;;;6.45;100.00;101764.31;5035550;28;20129;-62
2022/03/07 10:54:49;;;;;;;0.50;0.10;;;;;;;6.37;100.00;101764.16;5031897;28;20037;-59
2022/03/07 10:57:16;;;;;;;1.75;0.15;;;;;;;6.25;100.00;101769.50;5037041;28;20102;-60
2022/03/07 10:59:42;;;;;;;1.02;0.22;;;;;;;6.21;100.00;101768.09;5043323;28;20036;-59
2022/03/07 11:02:10;;;;;;;1.63;0.10;;;;;;;6.08;100.00;101763.03;5042594;28;20025;-57
2022/03/07 11:04:38;;;;;;;6.18;0.45;;;;;;;5.83;100.00;101747.63;5031405;28;20570;-62
2022/03/07 11:07:04;;;;;;;4.75;0.45;;;;;;;5.65;100.00;101745.59;5040607;28;20040;-61
2022/03/07 11:09:29;;;;;;;1.00;0.90;;;;;;;5.53;100.00;101738.69;5040947;28;20037;-60
2022/03/07 11:11:54;;;;;;;1.35;0.10;;;;;;;5.92;100.00;101738.13;5056357;28;20024;-60
2022/03/07 11:14:21;;;;;;;7.78;1.15;;;;;;;6.42;100.00;101725.91;5034719;28;20037;-60
2022/03/07 11:16:49;;;;;;;1.75;0.20;;;;;;;6.85;100.00;101723.94;5033704;28;20033;-62
2022/03/07 11:19:17;;;;;;;1.63;0.17;;;;;;;6.93;100.00;101719.66;5035050;28;20033;-62